Time;durP1;ratioP1;P1;durP2;ratioP2;P2;SDS_P1;SDS_P2;PMS_P1;PMS_P2;Temp;Humidity;BMP_temperature;BMP_pressure;BME280_temperature;BME280_humidity;BME280_pressure;Samples;Min_cycle;Max_cycle;Signal;HPM_P1;HPM_P2
2022/03/18 00:01:46;;;;;;;14.30;5.80;;;;;;;4.62;79.67;103892.56;5091313;28;20024;-74
2022/03/18 00:04:12;;;;;;;12.75;4.63;;;;;;;4.69;79.06;103900.78;5091095;28;20108;-75
2022/03/18 00:06:37;;;;;;;16.60;5.15;;;;;;;4.45;79.41;103907.88;5073034;28;20025;-75
2022/03/18 00:09:03;;;;;;;13.93;5.20;;;;;;;4.40;79.61;103913.22;5091149;28;20024;-75
2022/03/18 00:11:28;;;;;;;14.65;5.53;;;;;;;4.47;80.17;103912.03;5072859;28;20020;-75
2022/03/18 00:13:55;;;;;;;12.70;4.72;;;;;;;4.51;79.56;103912.72;5090979;28;20103;-75
2022/03/18 00:16:20;;;;;;;13.48;5.43;;;;;;;4.58;79.50;103921.78;5090368;28;20028;-75
2022/03/18 00:18:46;;;;;;;14.35;5.10;;;;;;;4.56;79.63;103925.31;5092394;28;20103;-76
2022/03/18 00:21:12;;;;;;;12.05;5.10;;;;;;;4.53;80.47;103926.28;5073119;28;20525;-75
2022/03/18 00:23:37;;;;;;;14.18;5.22;;;;;;;4.47;79.58;103935.09;5091723;28;20515;-75
2022/03/18 00:26:02;;;;;;;12.05;5.10;;;;;;;4.46;78.64;103928.31;5072491;28;20202;-75
2022/03/18 00:28:29;;;;;;;14.63;4.68;;;;;;;4.40;79.03;103910.66;5091689;28;20139;-76
2022/03/18 00:30:54;;;;;;;18.25;5.97;;;;;;;4.63;79.54;103916.44;5092997;28;20066;-76
2022/03/18 00:33:21;;;;;;;14.25;5.65;;;;;;;4.75;79.37;103926.97;5092859;28;20564;-76
2022/03/18 00:35:46;;;;;;;19.20;5.45;;;;;;;4.71;79.27;103929.72;5074722;28;20062;-76
2022/03/18 00:38:12;;;;;;;17.30;5.43;;;;;;;4.79;78.67;103925.09;5093071;28;20039;-76
2022/03/18 00:40:37;;;;;;;23.70;6.13;;;;;;;4.78;79.27;103920.88;5092728;28;20077;-76
2022/03/18 00:43:03;;;;;;;14.32;5.28;;;;;;;4.78;78.98;103926.00;5093886;28;20046;-76
2022/03/18 00:45:29;;;;;;;15.15;5.60;;;;;;;4.66;78.96;103916.28;5078297;28;20371;-76
2022/03/18 00:53:22;;;;;;;13.40;5.32;;;;;;;4.57;79.96;103926.97;5096348;28;20063;-75
2022/03/18 00:55:47;;;;;;;13.15;4.93;;;;;;;4.51;79.77;103930.66;5096382;28;20044;-76
2022/03/18 00:58:12;;;;;;;19.92;5.20;;;;;;;4.24;80.47;103931.00;5096161;28;20455;-75
2022/03/18 01:00:38;;;;;;;13.60;5.20;;;;;;;4.11;80.32;103931.59;5096326;28;20032;-76
2022/03/18 01:03:05;;;;;;;17.83;5.82;;;;;;;3.94;80.26;103940.84;5096141;28;20041;-76
2022/03/18 01:05:31;;;;;;;17.73;4.90;;;;;;;3.97;80.75;103935.59;5095971;28;20028;-76
2022/03/18 01:07:56;;;;;;;11.60;4.68;;;;;;;4.06;79.85;103931.81;5077712;28;20398;-75
2022/03/18 01:10:22;;;;;;;18.90;5.25;;;;;;;4.13;79.87;103919.56;5096017;28;20125;-75
2022/03/18 01:12:47;;;;;;;10.77;4.80;;;;;;;4.00;79.48;103932.06;5077894;28;20058;-74
2022/03/18 01:15:12;;;;;;;19.00;5.35;;;;;;;3.93;79.99;103936.63;5096016;28;20506;-76
2022/03/18 01:17:38;;;;;;;14.38;5.18;;;;;;;3.87;80.40;103934.31;5096095;28;20482;-75
2022/03/18 01:20:04;;;;;;;21.02;4.82;;;;;;;3.91;80.03;103920.50;5077661;28;20028;-75
2022/03/18 01:22:29;;;;;;;12.55;4.80;;;;;;;3.97;79.77;103917.69;5077508;28;20371;-77
2022/03/18 01:24:54;;;;;;;13.60;5.28;;;;;;;3.95;79.96;103932.28;5095916;28;20042;-76
2022/03/18 01:27:20;;;;;;;13.90;4.82;;;;;;;3.89;80.46;103927.44;5095538;28;20069;-76
2022/03/18 01:29:45;;;;;;;12.55;4.70;;;;;;;3.84;80.17;103911.44;5095769;28;20036;-76
2022/03/18 01:32:10;;;;;;;11.10;4.65;;;;;;;3.69;80.15;103894.19;5095403;28;20055;-77
2022/03/18 01:34:35;;;;;;;12.57;4.80;;;;;;;3.64;80.32;103925.06;5095484;28;20024;-75
2022/03/18 01:37:01;;;;;;;11.82;4.95;;;;;;;3.48;80.59;103926.59;5095417;28;20012;-76
2022/03/18 01:39:26;;;;;;;12.80;5.07;;;;;;;3.52;80.94;103925.59;5077172;28;20020;-75
2022/03/18 01:41:52;;;;;;;13.15;4.70;;;;;;;3.57;80.75;103924.50;5077156;28;20057;-76
2022/03/18 01:44:18;;;;;;;11.35;4.70;;;;;;;3.68;80.03;103923.19;5095218;28;20020;-75
2022/03/18 01:46:43;;;;;;;12.93;4.95;;;;;;;3.68;80.11;103930.88;5077102;28;20106;-76
2022/03/18 01:49:09;;;;;;;13.85;4.88;;;;;;;3.65;79.87;103942.06;5095186;28;20134;-76
2022/03/18 01:51:34;;;;;;;14.70;4.88;;;;;;;3.65;80.08;103941.25;5095138;28;20024;-76
2022/03/18 01:56:44;;;;;;;13.77;4.75;;;;;;;3.58;80.44;103949.16;5095446;28;20081;-75
2022/03/18 01:59:13;;;;;;;12.93;4.50;;;;;;;3.58;80.76;103948.34;5076915;28;20530;-77
2022/03/18 02:01:38;;;;;;;13.40;4.90;;;;;;;3.42;80.41;103944.75;5094943;28;20115;-76
2022/03/18 02:04:04;;;;;;;13.73;4.93;;;;;;;3.39;81.16;103950.81;5077043;28;20479;-76
2022/03/18 02:06:29;;;;;;;11.95;5.53;;;;;;;3.34;81.02;103945.91;5094795;28;20024;-76
2022/03/18 02:08:55;;;;;;;18.77;4.82;;;;;;;3.35;80.46;103951.84;5076669;28;20021;-75
2022/03/18 02:11:21;;;;;;;10.05;4.90;;;;;;;3.34;80.40;103950.19;5094781;28;20447;-75
2022/03/18 02:13:51;;;;;;;13.02;4.43;;;;;;;3.43;80.19;103949.81;5076510;28;20027;-76
2022/03/18 02:16:17;;;;;;;12.75;4.75;;;;;;;3.46;80.47;103942.00;5076372;28;20024;-76
2022/03/18 02:18:42;;;;;;;17.33;5.50;;;;;;;3.45;80.57;103939.50;5076644;28;20467;-75
2022/03/18 02:21:08;;;;;;;15.68;4.72;;;;;;;3.54;79.74;103939.97;5094606;28;20031;-75
2022/03/18 02:23:34;;;;;;;13.77;4.80;;;;;;;3.47;80.51;103951.34;5076334;28;20092;-75
2022/03/18 02:25:59;;;;;;;16.05;4.97;;;;;;;3.54;80.23;103952.75;5094449;28;20020;-75
2022/03/18 02:28:25;;;;;;;10.70;4.75;;;;;;;3.44;80.90;103954.00;5094378;28;20016;-76
2022/03/18 02:30:50;;;;;;;14.02;4.40;;;;;;;3.45;80.16;103955.66;5094374;28;20020;-76
2022/03/18 02:33:17;;;;;;;15.52;4.65;;;;;;;3.45;80.42;103948.00;5076215;28;20118;-75
2022/03/18 02:35:42;;;;;;;13.73;4.35;;;;;;;3.55;79.46;103948.47;5076295;28;20051;-76
2022/03/18 02:38:07;;;;;;;13.50;4.22;;;;;;;3.63;79.12;103958.41;5094146;28;20051;-76
2022/03/18 02:40:33;;;;;;;13.25;3.95;;;;;;;3.46;78.98;103962.47;5076089;28;20073;-76
2022/03/18 02:42:58;;;;;;;10.13;4.25;;;;;;;3.51;79.69;103968.22;5075976;28;20506;-76
2022/03/18 02:45:24;;;;;;;12.10;4.50;;;;;;;3.41;80.46;103972.03;5093971;28;20086;-75
2022/03/18 02:47:49;;;;;;;14.73;4.35;;;;;;;3.20;80.78;103976.28;5093973;28;20020;-77
2022/03/18 02:50:15;;;;;;;10.55;4.38;;;;;;;3.14;80.21;103982.47;5093731;28;20132;-76
2022/03/18 02:52:41;;;;;;;13.90;4.25;;;;;;;3.03;80.11;103979.50;5093899;28;20031;-76
2022/03/18 02:55:07;;;;;;;13.43;4.70;;;;;;;2.99;80.29;103979.66;5094050;28;20028;-76
2022/03/18 02:57:32;;;;;;;14.55;5.00;;;;;;;2.93;80.80;103983.28;5075532;28;20032;-76
2022/03/18 02:59:59;;;;;;;11.65;4.40;;;;;;;3.00;80.59;103979.63;5093768;28;20379;-76
2022/03/18 03:02:25;;;;;;;14.95;4.57;;;;;;;3.06;80.92;103976.81;5093867;28;20030;-76
2022/03/18 03:10:18;;;;;;;14.35;4.50;;;;;;;3.14;79.61;103991.88;5093966;28;20085;-76
2022/03/18 03:12:43;;;;;;;11.20;4.63;;;;;;;3.10;79.39;104000.53;5093526;28;20024;-76
2022/03/18 03:15:08;;;;;;;13.02;4.43;;;;;;;3.06;79.72;103997.25;5075294;28;20092;-76
2022/03/18 03:17:34;;;;;;;14.50;4.47;;;;;;;3.12;80.08;104003.88;5075401;28;20027;-76
2022/03/18 03:20:00;;;;;;;13.27;4.70;;;;;;;3.09;80.17;104004.81;5093509;28;20039;-76
2022/03/18 03:22:28;;;;;;;12.70;4.47;;;;;;;3.14;79.66;104002.09;5093408;28;20035;-76
2022/03/18 03:24:55;;;;;;;9.57;4.35;;;;;;;3.12;79.98;104007.25;5093314;28;20028;-76
2022/03/18 03:27:20;;;;;;;13.50;4.93;;;;;;;3.05;79.81;104008.38;5093548;28;20509;-75
2022/03/18 03:29:46;;;;;;;9.70;4.63;;;;;;;3.06;80.40;104014.31;5093450;28;20024;-75
2022/03/18 03:32:11;;;;;;;10.30;4.55;;;;;;;3.03;80.09;104014.44;5075264;28;20467;-75
2022/03/18 03:34:36;;;;;;;11.57;4.57;;;;;;;3.03;80.23;104006.78;5093411;28;20020;-74
2022/03/18 03:37:02;;;;;;;13.63;4.50;;;;;;;2.98;79.99;103999.28;5093248;28;20034;-75
2022/03/18 03:39:27;;;;;;;10.75;4.32;;;;;;;2.99;79.90;104010.31;5093257;28;20465;-75
2022/03/18 03:41:52;;;;;;;12.18;4.93;;;;;;;3.01;80.19;104006.00;5093232;28;20386;-76
2022/03/18 03:44:18;;;;;;;16.85;5.20;;;;;;;2.98;80.12;103998.44;5093099;28;20111;-75
2022/03/18 03:46:43;;;;;;;11.15;4.47;;;;;;;2.96;80.36;104007.88;5074937;28;20118;-76
2022/03/18 03:49:09;;;;;;;12.05;4.40;;;;;;;3.01;79.74;104004.25;5093157;28;20044;-76
2022/03/18 03:51:35;;;;;;;11.32;4.45;;;;;;;3.00;79.67;104007.72;5093066;28;20420;-75
2022/03/18 03:54:00;;;;;;;11.65;3.80;;;;;;;2.80;78.62;103972.72;5093052;28;20081;-74
2022/03/18 03:56:25;;;;;;;11.95;4.00;;;;;;;2.94;79.47;104005.41;5092971;28;20028;-77
2022/03/18 03:58:51;;;;;;;14.90;4.43;;;;;;;2.85;79.78;104006.56;5074799;28;20028;-75
2022/03/18 04:01:16;;;;;;;11.93;4.45;;;;;;;2.81;79.57;104015.22;5092943;28;20072;-75
2022/03/18 04:03:42;;;;;;;10.07;4.18;;;;;;;2.83;79.43;104000.69;5074875;28;20032;-75
2022/03/18 04:06:07;;;;;;;9.73;4.43;;;;;;;2.86;79.95;104015.06;5092862;28;20021;-75
2022/03/18 04:08:33;;;;;;;14.90;4.93;;;;;;;2.74;79.45;104020.63;5092947;28;20028;-75
2022/03/18 04:10:58;;;;;;;17.08;4.40;;;;;;;2.76;79.76;104024.78;5074860;28;20499;-75
2022/03/18 04:13:23;;;;;;;10.48;4.53;;;;;;;2.59;79.57;104004.13;5092912;28;20089;-75
2022/03/18 04:15:48;;;;;;;10.23;3.90;;;;;;;2.71;79.18;104021.56;5092880;28;20455;-75
2022/03/18 04:18:14;;;;;;;11.70;4.63;;;;;;;2.53;79.85;104033.25;5076094;28;20016;-75
2022/03/18 04:20:39;;;;;;;10.90;4.20;;;;;;;2.54;79.91;104040.06;5078807;28;20073;-75
2022/03/18 04:23:04;;;;;;;12.25;4.45;;;;;;;2.49;79.82;104040.19;5096718;28;20020;-75
2022/03/18 04:25:33;;;;;;;14.70;4.60;;;;;;;2.53;79.55;104057.97;5096829;28;20457;-74
2022/03/18 04:27:59;;;;;;;13.85;4.80;;;;;;;2.46;79.65;104055.63;5096664;28;20028;-75
2022/03/18 04:30:24;;;;;;;12.18;5.07;;;;;;;2.51;79.58;104065.69;5099372;28;20031;-76
2022/03/18 04:32:50;;;;;;;13.02;4.50;;;;;;;2.43;80.03;104077.88;5083247;28;20044;-76
2022/03/18 04:35:15;;;;;;;11.73;4.43;;;;;;;2.33;80.10;104073.97;5096683;28;20020;-75
2022/03/18 04:37:42;;;;;;;12.02;4.70;;;;;;;2.44;79.79;104061.69;5096594;28;20462;-75
2022/03/18 04:40:09;;;;;;;10.45;4.50;;;;;;;2.36;79.87;104056.00;5096438;28;20028;-75
2022/03/18 04:42:34;;;;;;;8.85;4.57;;;;;;;2.25;81.45;104064.88;5096507;28;20106;-75
2022/03/18 04:45:00;;;;;;;10.50;4.63;;;;;;;2.39;80.42;104066.13;5096471;28;20061;-75
2022/03/18 04:47:25;;;;;;;17.98;5.07;;;;;;;2.47;80.53;104061.56;5078207;28;20107;-75
2022/03/18 04:49:50;;;;;;;10.93;4.82;;;;;;;2.42;80.37;104059.19;5077959;28;20040;-75
2022/03/18 04:52:15;;;;;;;15.75;5.22;;;;;;;2.49;80.43;104063.19;5096259;28;20024;-75
2022/03/18 04:54:41;;;;;;;16.08;5.10;;;;;;;2.53;79.87;104058.78;5096237;28;20527;-75
2022/03/18 04:57:15;;;;;;;11.35;5.18;;;;;;;2.38;80.19;104062.72;5096161;28;20012;-75
2022/03/18 04:59:41;;;;;;;13.57;5.25;;;;;;;2.50;80.11;104069.13;5096199;28;20529;-75
2022/03/18 05:02:06;;;;;;;10.30;5.03;;;;;;;2.54;79.95;104068.13;5096215;28;20102;-76
2022/03/18 05:04:32;;;;;;;11.00;5.00;;;;;;;2.49;80.16;104064.91;5077944;28;20023;-76
2022/03/18 05:06:57;;;;;;;14.27;5.03;;;;;;;2.53;79.93;104063.91;5096277;28;20058;-76
2022/03/18 05:09:23;;;;;;;16.23;5.10;;;;;;;2.52;79.46;104069.06;5077967;28;20416;-76
2022/03/18 05:11:48;;;;;;;14.90;5.03;;;;;;;2.44;79.67;104071.88;5077739;28;20106;-76
2022/03/18 05:14:15;;;;;;;13.77;5.13;;;;;;;2.34;80.55;104084.16;5095783;28;20494;-75
2022/03/18 05:16:42;;;;;;;13.85;5.45;;;;;;;2.24;81.03;104088.72;5095904;28;20024;-75
2022/03/18 05:19:08;;;;;;;13.55;5.40;;;;;;;2.20;81.31;104092.25;5077667;28;20044;-76
2022/03/18 05:21:33;;;;;;;13.60;5.53;;;;;;;2.22;81.22;104097.31;5095728;28;20056;-76
2022/03/18 05:23:58;;;;;;;13.10;5.22;;;;;;;2.13;81.46;104095.91;5095811;28;20119;-73
2022/03/18 05:26:24;;;;;;;14.43;5.20;;;;;;;2.13;80.98;104098.47;5077477;28;20028;-76
2022/03/18 05:28:49;;;;;;;9.32;5.15;;;;;;;2.24;81.02;104095.53;5095053;28;20016;-76
2022/03/18 05:31:14;;;;;;;11.38;5.30;;;;;;;2.27;81.07;104105.63;5076720;28;20024;-76
2022/03/18 05:33:39;;;;;;;13.75;5.47;;;;;;;2.33;81.12;104102.91;5077226;28;20131;-76
2022/03/18 05:36:05;;;;;;;14.48;5.65;;;;;;;2.32;81.19;104105.50;5096927;28;20365;-76
2022/03/18 05:38:30;;;;;;;10.50;6.05;;;;;;;2.23;80.99;104092.16;5084263;28;20035;-78
2022/03/18 05:40:56;;;;;;;10.88;5.82;;;;;;;2.46;80.49;104105.88;5074378;28;20039;-76
2022/03/18 05:43:21;;;;;;;12.10;5.60;;;;;;;2.34;80.43;104107.13;5100366;28;20050;-77
2022/03/18 05:45:47;;;;;;;13.20;5.90;;;;;;;2.40;80.91;104124.78;5102142;28;20028;-76
2022/03/18 05:48:13;;;;;;;11.80;5.53;;;;;;;2.48;81.06;104134.75;5077129;28;20024;-76
2022/03/18 05:50:39;;;;;;;13.95;5.82;;;;;;;2.43;80.99;104128.94;5097456;28;20038;-75
2022/03/18 05:53:04;;;;;;;12.48;5.50;;;;;;;2.37;81.02;104137.63;5077898;28;20020;-74
2022/03/18 05:58:17;;;;;;;15.80;6.40;;;;;;;2.51;80.93;104138.91;5094302;28;20039;-75
2022/03/18 06:00:43;;;;;;;12.90;6.15;;;;;;;2.60;80.69;104144.53;5095106;28;20028;-76
2022/03/18 06:03:09;;;;;;;12.07;6.40;;;;;;;2.53;80.90;104148.16;5094718;28;20028;-76
2022/03/18 06:05:34;;;;;;;11.63;6.00;;;;;;;2.55;80.83;104148.94;5076613;28;20429;-76
2022/03/18 06:11:48;;;;;;;16.92;6.43;;;;;;;2.52;80.91;104150.78;5076318;28;20031;-75
2022/03/18 06:13:29;;;;;;;13.05;6.43;;;;;;;2.72;80.66;104143.28;5094792;28;20126;-76
2022/03/18 06:15:54;;;;;;;16.52;7.38;;;;;;;2.81;79.34;104144.66;5094656;28;20034;-76
2022/03/18 06:18:19;;;;;;;16.40;7.35;;;;;;;2.91;79.18;104141.75;5076405;28;20020;-75
2022/03/18 06:20:52;;;;;;;13.30;6.05;;;;;;;3.05;78.91;104153.19;5094429;28;20031;-75
2022/03/18 06:23:17;;;;;;;18.80;6.88;;;;;;;3.02;79.21;104166.06;5094386;28;20028;-76
2022/03/18 06:25:43;;;;;;;16.45;6.93;;;;;;;2.90;79.54;104168.16;5094612;28;20505;-76
2022/03/18 06:28:08;;;;;;;15.55;6.85;;;;;;;3.01;79.46;104167.78;5095126;28;20016;-75
2022/03/18 06:30:34;;;;;;;15.35;6.22;;;;;;;3.11;79.50;104153.00;5076146;28;20031;-74
2022/03/18 06:32:59;;;;;;;19.88;6.85;;;;;;;3.13;79.58;104166.53;5075997;28;20024;-75
2022/03/18 06:35:25;;;;;;;14.57;6.53;;;;;;;3.16;79.24;104167.25;5094459;28;20016;-76
2022/03/18 06:37:50;;;;;;;14.95;6.75;;;;;;;3.28;78.79;104167.69;5075867;28;20115;-76
2022/03/18 06:40:15;;;;;;;19.02;6.90;;;;;;;3.41;78.41;104168.09;5094040;28;20024;-67
2022/03/18 06:42:41;;;;;;;17.00;6.88;;;;;;;3.52;78.82;104173.63;5093827;28;20035;-70
2022/03/18 06:45:07;;;;;;;13.45;7.20;;;;;;;3.45;78.96;104174.75;5093989;28;20035;-68
2022/03/18 06:47:32;;;;;;;17.65;7.45;;;;;;;3.24;79.65;104148.25;5093892;28;20378;-67
2022/03/18 06:49:57;;;;;;;14.43;7.00;;;;;;;3.50;79.43;104191.56;5075594;28;20055;-68
2022/03/18 06:52:24;;;;;;;12.43;6.57;;;;;;;3.43;78.84;104184.22;5093783;28;20028;-68
2022/03/18 06:54:50;;;;;;;15.40;7.47;;;;;;;3.57;77.96;104198.16;5093942;28;20024;-67
2022/03/18 06:57:15;;;;;;;19.73;7.53;;;;;;;3.43;78.03;104177.38;5093766;28;20034;-67
2022/03/18 06:59:41;;;;;;;17.27;7.70;;;;;;;3.73;78.35;104207.78;5093712;28;20056;-66
2022/03/18 07:02:06;;;;;;;14.60;7.10;;;;;;;3.93;77.45;104197.63;5093760;28;20039;-66
2022/03/18 07:04:31;;;;;;;16.77;7.78;;;;;;;4.02;77.26;104201.56;5093928;28;20024;-67
2022/03/18 07:06:57;;;;;;;16.23;7.30;;;;;;;4.17;77.36;104200.09;5076388;28;20054;-68
2022/03/18 07:09:22;;;;;;;19.90;7.50;;;;;;;4.43;76.88;104207.59;5093761;28;20089;-67
2022/03/18 07:11:47;;;;;;;16.90;7.63;;;;;;;4.69;75.49;104209.09;5093556;28;20078;-66
2022/03/18 07:14:13;;;;;;;22.58;8.20;;;;;;;4.66;75.35;104214.34;5093281;28;20074;-67
2022/03/18 07:19:22;;;;;;;29.65;10.32;;;;;;;4.84;74.87;104204.22;5093291;28;20043;-66
2022/03/18 07:21:47;;;;;;;22.23;8.50;;;;;;;5.03;74.00;104222.19;5093316;28;20017;-68
2022/03/18 07:24:12;;;;;;;26.75;9.15;;;;;;;5.10;74.25;104221.03;5093313;28;20433;-67
2022/03/18 07:26:38;;;;;;;20.15;8.90;;;;;;;5.27;74.13;104220.28;5093458;28;20034;-67
2022/03/18 07:29:05;;;;;;;25.20;9.20;;;;;;;5.31;73.90;104217.50;5074890;28;20115;-68
2022/03/18 07:31:30;;;;;;;21.70;9.35;;;;;;;5.58;73.53;104212.03;5092437;28;20054;-68
2022/03/18 07:33:56;;;;;;;20.20;8.63;;;;;;;5.83;72.62;104217.69;5075045;28;20056;-67
2022/03/18 07:36:21;;;;;;;16.50;8.77;;;;;;;6.27;72.21;104219.09;5093248;28;20028;-67
2022/03/18 07:38:46;;;;;;;23.23;9.35;;;;;;;11.13;56.61;104231.81;5093250;28;20071;-69
2022/03/18 07:41:12;;;;;;;16.50;7.72;;;;;;;13.64;48.59;104227.03;5075187;28;20502;-68
2022/03/18 07:43:37;;;;;;;25.63;8.80;;;;;;;14.51;45.47;104226.81;5093198;28;20020;-69
2022/03/18 07:46:03;;;;;;;21.23;8.43;;;;;;;15.29;43.65;104246.19;5093022;28;20028;-67
2022/03/18 07:48:28;;;;;;;17.45;8.02;;;;;;;16.33;40.89;104236.88;5092789;28;20044;-67
2022/03/18 07:50:54;;;;;;;17.17;7.60;;;;;;;17.14;39.97;104239.72;5093041;28;20020;-68
2022/03/18 07:53:20;;;;;;;16.92;7.28;;;;;;;17.15;39.15;104240.56;5074079;28;20470;-67
2022/03/18 07:55:45;;;;;;;17.00;7.63;;;;;;;17.34;39.01;104243.03;5092889;28;20034;-68
2022/03/18 07:58:10;;;;;;;20.65;7.15;;;;;;;17.52;38.30;104250.91;5092794;28;20596;-69
2022/03/18 08:00:36;;;;;;;17.77;7.38;;;;;;;17.63;38.44;104257.69;5093106;28;20055;-68
2022/03/18 08:03:03;;;;;;;15.63;7.28;;;;;;;17.89;38.72;104251.75;5075105;28;20024;-68
2022/03/18 08:05:28;;;;;;;20.30;6.95;;;;;;;18.12;36.59;104259.94;5093064;28;20081;-68
2022/03/18 08:07:53;;;;;;;21.10;6.95;;;;;;;17.77;37.38;104265.00;5074931;28;20382;-70
2022/03/18 08:10:19;;;;;;;15.15;6.75;;;;;;;18.59;37.22;104262.19;5093275;28;20024;-68
2022/03/18 08:12:46;;;;;;;15.90;6.72;;;;;;;18.37;36.10;104271.38;5093027;28;20104;-69
2022/03/18 08:15:13;;;;;;;16.05;7.07;;;;;;;18.78;36.40;104275.06;5093028;28;20024;-68
2022/03/18 08:17:40;;;;;;;17.83;7.10;;;;;;;18.70;36.60;104257.50;5092974;28;20020;-67
2022/03/18 08:20:11;;;;;;;15.93;6.75;;;;;;;19.30;35.91;104288.03;5074806;28;20114;-70
2022/03/18 08:22:38;;;;;;;11.57;5.93;;;;;;;19.69;34.91;104291.91;5074813;28;20020;-68
2022/03/18 08:25:04;;;;;;;15.05;6.45;;;;;;;19.91;35.00;104293.91;5074762;28;20024;-68
2022/03/18 08:27:30;;;;;;;16.95;6.15;;;;;;;19.33;35.75;104290.34;5074674;28;20500;-69
2022/03/18 08:29:59;;;;;;;12.63;5.47;;;;;;;19.28;36.46;104297.88;5074575;28;20020;-70
2022/03/18 08:32:27;;;;;;;12.82;5.75;;;;;;;19.06;38.72;104301.06;5074675;28;20024;-69
2022/03/18 08:34:52;;;;;;;11.48;5.00;;;;;;;19.85;36.10;104310.28;5074564;28;20036;-68
2022/03/18 08:37:56;;;;;;;16.15;5.00;;;;;;;19.68;36.05;104311.25;5092864;28;20125;-68
2022/03/18 08:40:04;;;;;;;12.35;4.55;;;;;;;19.14;37.89;104307.16;5092576;28;20024;-67
2022/03/18 08:42:30;;;;;;;15.50;4.72;;;;;;;20.02;36.17;104313.72;5092723;28;20027;-67
2022/03/18 08:44:56;;;;;;;12.25;4.20;;;;;;;21.01;34.58;104307.28;5092695;28;20117;-67
2022/03/18 08:47:23;;;;;;;15.60;4.40;;;;;;;21.26;34.44;104305.38;5074531;28;20032;-67
2022/03/18 08:49:48;;;;;;;11.15;4.05;;;;;;;21.55;33.66;104306.50;5092561;28;20048;-68
2022/03/18 08:52:14;;;;;;;15.30;4.88;;;;;;;21.29;34.05;104312.06;5092570;28;20098;-67
2022/03/18 08:54:39;;;;;;;12.40;4.88;;;;;;;21.23;33.93;104318.03;5092802;28;20088;-67
2022/03/18 08:57:05;;;;;;;11.82;4.43;;;;;;;22.05;33.32;104316.47;5092488;28;20433;-67
2022/03/18 08:59:30;;;;;;;12.98;4.40;;;;;;;22.42;32.83;104325.38;5074420;28;20554;-68
2022/03/18 09:01:56;;;;;;;10.82;4.47;;;;;;;22.78;32.31;104329.09;5092731;28;20121;-68
2022/03/18 09:04:21;;;;;;;11.10;4.38;;;;;;;21.91;32.77;104330.44;5094128;28;20475;-67
2022/03/18 09:06:47;;;;;;;12.23;4.30;;;;;;;22.48;32.77;104340.47;5078052;28;20111;-68
2022/03/18 09:09:12;;;;;;;12.50;4.97;;;;;;;22.72;32.32;104339.38;5077933;28;20301;-68
2022/03/18 09:11:37;;;;;;;11.80;4.20;;;;;;;21.68;34.45;104340.16;5096092;28;20024;-67
2022/03/18 09:14:03;;;;;;;17.20;4.15;;;;;;;23.22;31.88;104337.00;5077315;28;20389;-67
2022/03/18 09:16:30;;;;;;;15.63;4.43;;;;;;;23.55;32.26;104345.25;5076399;28;20052;-68
2022/03/18 09:18:55;;;;;;;11.15;3.88;;;;;;;22.93;32.98;104345.72;5095687;28;20209;-68
2022/03/18 09:21:20;;;;;;;13.02;3.97;;;;;;;24.04;30.71;104349.75;5096326;28;20090;-68
2022/03/18 09:23:46;;;;;;;15.75;3.97;;;;;;;24.37;30.51;104362.41;5096013;28;20433;-68
2022/03/18 09:26:11;;;;;;;10.80;3.80;;;;;;;24.36;30.36;104362.59;5077708;28;20050;-67
2022/03/18 09:28:37;;;;;;;13.32;3.80;;;;;;;24.51;30.15;104368.63;5095682;28;20027;-68
2022/03/18 09:31:03;;;;;;;8.48;3.35;;;;;;;24.12;31.28;104377.88;5095564;28;20392;-68
2022/03/18 09:33:28;;;;;;;12.80;3.72;;;;;;;23.08;32.26;104385.31;5094623;28;20114;-69
2022/03/18 09:35:53;;;;;;;14.57;3.97;;;;;;;21.15;35.60;104396.00;5075521;28;20479;-69
2022/03/18 09:38:19;;;;;;;10.63;4.03;;;;;;;20.29;36.27;104399.25;5095817;28;20027;-68
2022/03/18 09:40:44;;;;;;;12.73;4.32;;;;;;;20.71;36.31;104404.34;5096061;28;20024;-67
2022/03/18 09:43:10;;;;;;;12.20;4.10;;;;;;;20.73;36.94;104399.72;5077720;28;20558;-67
2022/03/18 09:45:38;;;;;;;12.27;4.28;;;;;;;19.17;39.08;104411.72;5095749;28;20077;-68
2022/03/18 09:48:11;;;;;;;15.27;4.60;;;;;;;20.80;37.68;104399.03;5077954;28;20500;-70
2022/03/18 09:50:38;;;;;;;9.55;4.53;;;;;;;20.79;36.76;104402.66;5082203;28;20028;-73
2022/03/18 09:53:04;;;;;;;13.23;4.90;;;;;;;21.91;35.67;104395.44;5100406;28;20028;-70
2022/03/18 09:55:31;;;;;;;13.93;5.00;;;;;;;20.24;37.98;104398.91;5099936;28;20471;-68
2022/03/18 09:57:56;;;;;;;17.10;5.28;;;;;;;18.87;41.22;104389.44;5082157;28;20035;-70
2022/03/18 10:00:21;;;;;;;12.82;4.90;;;;;;;18.97;42.11;104389.34;5101625;28;20073;-73
2022/03/18 10:03:06;;;;;;;15.05;5.35;;;;;;;18.82;42.21;104396.94;5100242;28;20419;-70
2022/03/18 10:05:32;;;;;;;14.65;5.03;;;;;;;18.25;43.81;104388.63;5099013;28;20062;-70
2022/03/18 10:07:58;;;;;;;12.98;4.80;;;;;;;17.54;44.86;104389.34;5103241;28;20024;-71
2022/03/18 10:10:24;;;;;;;14.18;5.00;;;;;;;18.11;43.88;104391.78;5085091;28;20024;-69
2022/03/18 10:12:51;;;;;;;13.57;5.00;;;;;;;18.12;43.59;104393.41;5100579;28;20050;-72
2022/03/18 10:15:22;;;;;;;11.18;4.55;;;;;;;17.15;46.22;104389.53;5077987;28;20020;-67
2022/03/18 10:17:53;;;;;;;16.25;4.80;;;;;;;17.56;44.81;104390.84;5095701;28;20097;-67
2022/03/18 10:20:31;;;;;;;14.23;4.90;;;;;;;18.23;43.84;104394.00;5078124;28;20024;-67
2022/03/18 10:23:02;;;;;;;14.70;4.60;;;;;;;17.06;45.57;104370.31;5095669;28;20024;-71
2022/03/18 10:25:37;;;;;;;12.48;4.65;;;;;;;17.60;45.34;104394.81;5095625;28;20069;-68
2022/03/18 10:28:04;;;;;;;11.70;4.22;;;;;;;18.37;44.37;104397.88;5095333;28;20028;-68
2022/03/18 10:30:31;;;;;;;13.05;4.55;;;;;;;18.50;42.52;104397.50;5095217;28;20098;-68
2022/03/18 10:32:57;;;;;;;15.18;4.93;;;;;;;17.19;45.41;104405.75;5077087;28;20024;-68
2022/03/18 10:38:35;;;;;;;11.23;4.88;;;;;;;18.24;44.37;104398.28;5092816;28;20559;-69
2022/03/18 10:41:23;;;;;;;14.32;4.82;;;;;;;17.99;45.09;104392.00;5091640;28;20028;-69
2022/03/18 10:43:55;;;;;;;12.43;5.57;;;;;;;17.72;45.94;104400.69;5091101;28;20027;-69
2022/03/18 10:46:22;;;;;;;11.20;4.22;;;;;;;17.53;44.85;104385.91;5072367;28;20024;-68
2022/03/18 10:49:02;;;;;;;12.35;4.90;;;;;;;17.46;45.60;104408.38;5090210;28;20545;-69
2022/03/18 10:51:27;;;;;;;15.52;4.82;;;;;;;16.50;47.01;104406.81;5072941;28;20036;-68
2022/03/18 10:53:57;;;;;;;18.75;4.85;;;;;;;16.91;46.56;104403.06;5091851;28;20028;-68
2022/03/18 10:56:23;;;;;;;14.05;4.70;;;;;;;16.78;47.40;104407.78;5073879;28;20030;-71
2022/03/18 10:58:48;;;;;;;12.20;4.68;;;;;;;17.41;45.98;104402.75;5092736;28;20020;-67
2022/03/18 11:01:15;;;;;;;13.07;4.60;;;;;;;18.05;45.39;104411.50;5093923;28;20052;-68
2022/03/18 11:03:41;;;;;;;15.88;4.72;;;;;;;17.19;47.29;104408.34;5075856;28;20398;-68
2022/03/18 11:06:07;;;;;;;17.65;4.82;;;;;;;18.47;43.91;104408.28;5093864;28;20028;-68
2022/03/18 11:08:42;;;;;;;10.38;4.22;;;;;;;17.88;44.51;104407.91;5093693;28;20023;-68
2022/03/18 11:11:14;;;;;;;11.63;4.40;;;;;;;17.12;46.64;104405.50;5093968;28;20432;-67
2022/03/18 11:13:51;;;;;;;;;;;;;;;17.07;46.43;104410.31;5076151;28;20032;-67
2022/03/18 11:16:29;;;;;;;11.32;4.30;;;;;;;18.18;44.15;104400.66;5093539;28;19997;-67
2022/03/18 11:18:55;;;;;;;13.27;5.82;;;;;;;17.70;44.42;104399.19;5093656;28;20020;-67
2022/03/18 11:21:21;;;;;;;13.65;4.38;;;;;;;18.45;43.79;104400.59;5093622;28;20024;-71
2022/03/18 11:23:49;;;;;;;7.95;3.95;;;;;;;18.34;42.64;104403.44;5075336;28;20024;-71
2022/03/18 11:26:18;;;;;;;11.15;4.13;;;;;;;18.59;43.39;104401.03;5075269;28;20123;-68
2022/03/18 11:28:44;;;;;;;13.90;4.40;;;;;;;18.26;43.96;104411.22;5074323;28;20028;-67
2022/03/18 11:31:16;;;;;;;9.77;4.07;;;;;;;19.03;42.37;104409.69;5075188;28;20034;-68
2022/03/18 11:34:11;;;;;;;14.80;4.00;;;;;;;18.15;43.34;104407.00;5093425;28;20028;-68
2022/03/18 11:36:43;;;;;;;11.73;4.38;;;;;;;18.20;42.68;104406.56;5074908;28;20043;-68
2022/03/18 11:39:09;;;;;;;12.98;3.92;;;;;;;18.69;42.44;104413.03;5075240;28;20364;-69
2022/03/18 11:41:52;;;;;;;7.30;2.70;;;;;;;19.85;39.35;104410.00;5093191;28;20027;-67
2022/03/18 11:44:36;;;;;;;9.93;2.95;;;;;;;18.52;40.04;104411.25;5093277;28;20023;-69